createdAt,value
2022-09-06T00:00:14.337Z,19.45
2022-09-06T00:02:42.243Z,23.45
2022-09-06T00:05:10.871Z,24.60
2022-09-06T00:07:37.879Z,21.90
2022-09-06T00:10:05.827Z,28.73
2022-09-06T00:12:33.136Z,30.00
2022-09-06T00:15:00.110Z,27.42
2022-09-06T00:17:27.197Z,27.45
2022-09-06T00:19:54.143Z,21.15
2022-09-06T00:22:21.132Z,23.20
2022-09-06T00:24:48.108Z,26.90
2022-09-06T00:27:15.199Z,32.63
2022-09-06T00:29:42.321Z,25.42
2022-09-06T00:32:09.342Z,25.77
2022-09-06T00:34:36.298Z,21.27
2022-09-06T00:37:03.365Z,28.27
2022-09-06T00:39:30.353Z,26.98
2022-09-06T00:41:57.560Z,25.80
2022-09-06T00:44:24.483Z,28.92
2022-09-06T00:46:54.634Z,21.80
2022-09-06T00:49:24.715Z,18.90
2022-09-06T00:52:01.899Z,22.15
2022-09-06T00:54:29.021Z,17.58
2022-09-06T00:56:57.786Z,15.63
2022-09-06T00:59:27.216Z,12.90
2022-09-06T01:01:54.356Z,11.32
2022-09-06T01:04:21.821Z,10.90
2022-09-06T01:06:57.586Z,12.40
2022-09-06T01:09:43.111Z,14.07
2022-09-06T01:12:19.843Z,13.80
2022-09-06T01:15:03.160Z,16.33
2022-09-06T01:17:42.329Z,19.92
2022-09-06T01:20:41.879Z,17.77
2022-09-06T01:23:33.021Z,22.23
2022-09-06T01:26:24.853Z,22.00
2022-09-06T01:28:54.095Z,20.88
2022-09-06T01:31:48.257Z,21.45
2022-09-06T01:34:37.984Z,16.70
2022-09-06T01:37:14.674Z,19.90
2022-09-06T01:39:42.439Z,19.20
2022-09-06T01:42:15.936Z,22.20
2022-09-06T01:45:12.102Z,16.80
2022-09-06T01:48:10.059Z,23.33
2022-09-06T01:51:10.544Z,25.02
2022-09-06T01:54:01.519Z,21.77
2022-09-06T01:56:47.705Z,20.80
2022-09-06T01:59:22.366Z,27.20
2022-09-06T02:02:16.686Z,22.00
2022-09-06T02:05:01.528Z,23.58
2022-09-06T02:07:31.350Z,17.67
2022-09-06T02:10:09.901Z,23.77
2022-09-06T02:12:40.844Z,24.10
2022-09-06T02:15:33.172Z,20.33
2022-09-06T02:18:09.019Z,21.05
2022-09-06T02:20:41.311Z,22.92
2022-09-06T02:23:10.004Z,25.52
2022-09-06T02:26:12.716Z,25.15
2022-09-06T02:28:40.025Z,19.87
2022-09-06T02:31:16.359Z,30.62
2022-09-06T02:33:46.550Z,18.17
2022-09-06T02:36:15.872Z,33.65
2022-09-06T02:38:44.982Z,44.63
2022-09-06T02:41:15.539Z,29.90
2022-09-06T02:43:43.614Z,38.40
2022-09-06T02:46:10.999Z,43.40
2022-09-06T02:48:37.967Z,21.95
2022-09-06T02:51:09.492Z,87.37
2022-09-06T02:53:36.678Z,28.65
2022-09-06T02:56:04.612Z,31.33
2022-09-06T02:58:31.723Z,36.28
2022-09-06T03:00:59.004Z,36.17
2022-09-06T03:03:27.451Z,55.15
2022-09-06T03:05:55.286Z,26.23
2022-09-06T03:08:25.819Z,27.52
2022-09-06T03:10:54.956Z,87.25
2022-09-06T03:13:22.403Z,16.12
2022-09-06T03:15:57.662Z,35.67
2022-09-06T03:18:25.925Z,21.83
2022-09-06T03:20:54.991Z,28.60
2022-09-06T03:23:24.439Z,83.90
2022-09-06T03:25:51.895Z,64.40
2022-09-06T03:28:19.954Z,98.82
2022-09-06T03:30:48.468Z,27.95
2022-09-06T03:33:16.298Z,89.87
2022-09-06T03:35:59.599Z,55.10
2022-09-06T03:38:28.320Z,104.63
2022-09-06T03:40:55.627Z,83.57
2022-09-06T03:43:24.706Z,50.10
2022-09-06T03:45:54.236Z,97.45
2022-09-06T03:48:23.015Z,50.42
2022-09-06T03:50:53.098Z,73.93
2022-09-06T03:53:21.078Z,48.78
2022-09-06T03:55:50.300Z,54.90
2022-09-06T03:58:18.969Z,43.90
2022-09-06T04:00:46.265Z,50.67
2022-09-06T04:03:13.400Z,50.17
2022-09-06T04:05:40.683Z,52.80
2022-09-06T04:08:07.594Z,108.90
2022-09-06T04:10:34.510Z,47.42
2022-09-06T04:13:01.442Z,26.45
2022-09-06T04:15:28.612Z,92.18
2022-09-06T04:17:55.659Z,31.17
2022-09-06T04:20:22.603Z,27.87
2022-09-06T04:22:49.533Z,33.53
2022-09-06T04:25:16.527Z,15.65
2022-09-06T04:27:43.469Z,11.90
2022-09-06T04:30:10.661Z,11.95
2022-09-06T04:32:37.662Z,18.48
2022-09-06T04:35:05.055Z,11.93
2022-09-06T04:37:32.536Z,13.98
2022-09-06T04:39:59.682Z,17.02
2022-09-06T04:42:26.786Z,13.52
2022-09-06T04:44:53.766Z,14.85
2022-09-06T04:47:20.951Z,14.07
2022-09-06T04:49:50.728Z,12.30
2022-09-06T04:52:18.008Z,9.85
2022-09-06T04:54:45.055Z,10.50
2022-09-06T04:57:12.040Z,10.45
2022-09-06T04:59:39.019Z,9.75
2022-09-06T05:02:06.020Z,8.00
2022-09-06T05:04:33.032Z,7.03
2022-09-06T05:07:07.417Z,6.55
2022-09-06T05:09:34.909Z,5.97
2022-09-06T05:12:02.026Z,5.85
2022-09-06T05:14:29.736Z,6.30
2022-09-06T05:16:56.904Z,4.40
2022-09-06T05:19:23.867Z,4.53
2022-09-06T05:21:53.918Z,5.18
2022-09-06T05:24:20.923Z,4.05
2022-09-06T05:26:47.963Z,5.53
2022-09-06T05:29:14.982Z,4.15
2022-09-06T05:31:41.989Z,6.87
2022-09-06T05:34:09.030Z,6.40
2022-09-06T05:36:36.086Z,7.12
2022-09-06T05:39:03.146Z,8.00
2022-09-06T05:41:30.092Z,8.38
2022-09-06T05:43:57.100Z,7.90
2022-09-06T05:46:24.138Z,7.57
2022-09-06T05:48:55.540Z,10.38
2022-09-06T05:51:22.524Z,10.13
2022-09-06T05:53:49.502Z,14.13
2022-09-06T05:56:16.962Z,16.15
2022-09-06T05:58:43.934Z,22.87
2022-09-06T06:01:28.103Z,23.90
2022-09-06T06:04:00.594Z,31.15
2022-09-06T06:06:30.070Z,23.08
2022-09-06T06:08:57.157Z,20.20
2022-09-06T06:11:25.990Z,19.65
2022-09-06T06:13:53.289Z,47.67
2022-09-06T06:16:22.635Z,69.00
2022-09-06T06:18:52.324Z,71.57
2022-09-06T06:21:25.152Z,39.42
2022-09-06T06:23:58.216Z,22.42
2022-09-06T06:26:26.713Z,31.45
2022-09-06T06:28:54.030Z,36.58
2022-09-06T06:31:22.672Z,28.48
2022-09-06T06:33:50.346Z,23.23
2022-09-06T06:36:17.405Z,25.58
2022-09-06T06:38:46.034Z,24.58
2022-09-06T06:41:15.553Z,43.87
2022-09-06T06:43:42.819Z,83.55
2022-09-06T06:46:15.411Z,27.67
2022-09-06T06:48:43.922Z,32.70
2022-09-06T06:51:16.872Z,38.33
2022-09-06T06:53:47.506Z,45.83
2022-09-06T06:56:18.693Z,50.10
2022-09-06T06:58:47.935Z,50.92
2022-09-06T07:01:20.477Z,47.03
2022-09-06T07:03:47.887Z,43.78
2022-09-06T07:06:15.500Z,35.25
2022-09-06T07:08:43.455Z,48.95
2022-09-06T07:11:13.526Z,155.85
2022-09-06T07:13:40.786Z,28.25
2022-09-06T07:16:12.458Z,82.30
2022-09-06T07:18:42.397Z,171.27
2022-09-06T07:24:09.014Z,165.27
2022-09-06T07:26:39.156Z,145.87
2022-09-06T07:29:07.370Z,32.70
2022-09-06T07:34:25.222Z,30.50
2022-09-06T07:36:56.380Z,29.52
2022-09-06T07:39:23.610Z,31.05
2022-09-06T07:41:50.621Z,31.40
2022-09-06T07:44:17.691Z,38.78
2022-09-06T07:46:44.825Z,35.85
2022-09-06T07:49:12.166Z,35.05
2022-09-06T07:51:39.252Z,34.28
2022-09-06T07:54:28.657Z,33.22
2022-09-06T07:56:54.091Z,30.45
2022-09-06T07:59:21.051Z,31.87
2022-09-06T08:01:48.417Z,36.88
2022-09-06T08:04:15.553Z,33.70
2022-09-06T08:09:35.307Z,32.03
2022-09-06T08:12:07.541Z,30.15
2022-09-06T08:14:35.168Z,26.50
2022-09-06T08:17:03.014Z,35.70
2022-09-06T08:19:29.972Z,36.42
2022-09-06T08:21:57.164Z,39.25
2022-09-06T08:24:24.500Z,38.90
2022-09-06T08:26:51.550Z,45.88
2022-09-06T08:29:20.076Z,42.67
2022-09-06T08:31:47.567Z,27.73
2022-09-06T08:34:15.519Z,39.05
2022-09-06T08:36:43.395Z,36.22
2022-09-06T08:39:11.210Z,31.95
2022-09-06T08:42:03.106Z,40.67
2022-09-06T08:47:21.916Z,39.53
2022-09-06T08:49:52.493Z,30.70
2022-09-06T08:52:49.709Z,38.05
2022-09-06T08:55:40.914Z,33.28
2022-09-06T08:58:33.758Z,35.42
2022-09-06T09:01:11.678Z,38.15
2022-09-06T09:03:42.041Z,33.80
2022-09-06T09:06:10.358Z,39.55
2022-09-06T09:09:01.829Z,43.78
2022-09-06T09:11:30.363Z,40.03
2022-09-06T09:14:22.441Z,28.55
2022-09-06T09:16:55.131Z,27.50
2022-09-06T09:19:22.479Z,20.20
2022-09-06T09:21:49.476Z,23.25
2022-09-06T09:24:16.428Z,24.45
2022-09-06T09:27:11.346Z,34.42
2022-09-06T09:32:44.748Z,29.98
2022-09-06T09:35:37.271Z,36.88
2022-09-06T09:38:11.809Z,32.50
2022-09-06T09:40:56.535Z,25.17
2022-09-06T09:43:24.618Z,27.98
2022-09-06T09:46:22.575Z,31.65
2022-09-06T09:49:11.036Z,25.55
2022-09-06T09:51:43.538Z,46.13
2022-09-06T09:54:13.721Z,51.78
2022-09-06T09:56:45.885Z,10.50
2022-09-06T10:00:08.525Z,8.20
2022-09-06T10:02:40.160Z,7.05
2022-09-06T10:05:10.118Z,7.75
2022-09-06T10:07:42.764Z,17.05
2022-09-06T10:10:32.364Z,15.50
2022-09-06T10:13:22.656Z,22.42
2022-09-06T10:15:52.016Z,20.73
2022-09-06T10:18:30.864Z,25.10
2022-09-06T10:21:05.551Z,22.65
2022-09-06T10:26:55.432Z,22.13
2022-09-06T10:29:53.165Z,18.58
2022-09-06T10:32:37.754Z,20.95
2022-09-06T10:35:16.907Z,28.08
2022-09-06T10:37:46.592Z,25.45
2022-09-06T10:40:24.947Z,18.20
2022-09-06T10:42:54.362Z,20.73
2022-09-06T10:45:24.612Z,20.20
2022-09-06T10:48:14.919Z,21.08
2022-09-06T10:50:54.251Z,24.90
2022-09-06T10:53:33.230Z,23.58
2022-09-06T10:56:24.618Z,20.90
2022-09-06T11:02:27.868Z,23.40
2022-09-06T11:10:49.994Z,19.80
2022-09-06T11:13:23.223Z,21.27
2022-09-06T11:16:14.734Z,24.35
2022-09-06T11:18:59.128Z,17.17
2022-09-06T11:21:43.928Z,20.30
2022-09-06T11:24:27.561Z,20.95
2022-09-06T11:27:12.584Z,22.08
2022-09-06T11:29:46.367Z,21.95
2022-09-06T11:32:40.010Z,24.98
2022-09-06T11:35:11.108Z,23.15
2022-09-06T11:37:43.941Z,22.33
2022-09-06T11:40:28.189Z,23.83
2022-09-06T11:42:55.614Z,23.92
2022-09-06T11:45:41.955Z,25.45
2022-09-06T11:48:24.336Z,24.63
2022-09-06T11:50:54.339Z,24.25
2022-09-06T11:53:23.965Z,18.35
2022-09-06T11:56:09.847Z,22.87
2022-09-06T11:58:45.919Z,28.15
2022-09-06T12:01:12.854Z,23.33
2022-09-06T12:04:05.923Z,25.30
2022-09-06T12:06:40.885Z,20.05
2022-09-06T12:09:31.019Z,21.35
2022-09-06T12:11:59.291Z,26.92
2022-09-06T12:14:34.299Z,28.65
2022-09-06T12:17:01.458Z,25.67
2022-09-06T12:19:46.367Z,21.15
2022-09-06T12:22:32.824Z,21.02
2022-09-06T12:25:22.742Z,24.52
2022-09-06T12:28:01.779Z,23.55
2022-09-06T12:30:36.192Z,22.77
2022-09-06T12:33:11.268Z,24.05
2022-09-06T12:38:25.412Z,25.65
2022-09-06T12:40:58.421Z,30.33
2022-09-06T12:43:26.058Z,21.20
2022-09-06T12:45:53.171Z,30.02
2022-09-06T12:48:33.650Z,21.42
2022-09-06T12:51:19.548Z,28.38
2022-09-06T12:54:19.185Z,25.98
2022-09-06T12:56:46.112Z,23.73
2022-09-06T12:59:19.525Z,28.42
2022-09-06T13:02:05.321Z,24.33
2022-09-06T13:04:41.189Z,21.62
2022-09-06T13:07:14.745Z,28.50
2022-09-06T13:09:49.263Z,25.48
2022-09-06T13:12:39.396Z,24.65
2022-09-06T13:15:17.820Z,25.30
2022-09-06T13:17:45.300Z,23.67
2022-09-06T13:20:15.696Z,24.40
2022-09-06T13:22:47.883Z,23.87
2022-09-06T13:25:22.763Z,17.87
2022-09-06T13:27:51.490Z,22.60
2022-09-06T13:30:34.823Z,26.05
2022-09-06T13:33:03.668Z,22.52
2022-09-06T13:35:34.574Z,26.33
2022-09-06T13:38:22.241Z,25.45
2022-09-06T13:41:12.514Z,20.77
2022-09-06T13:43:48.619Z,23.62
2022-09-06T13:46:16.227Z,19.73
2022-09-06T13:48:44.628Z,23.67
2022-09-06T13:51:12.047Z,21.92
2022-09-06T13:53:39.029Z,25.80
2022-09-06T13:56:08.721Z,25.33
2022-09-06T13:58:36.510Z,20.40
2022-09-06T14:01:05.269Z,21.10
2022-09-06T14:03:32.990Z,24.45
2022-09-06T14:06:00.527Z,24.83
2022-09-06T14:08:38.761Z,23.15
2022-09-06T14:11:10.762Z,23.85
2022-09-06T14:13:37.813Z,23.95
2022-09-06T14:16:05.653Z,24.45
2022-09-06T14:18:32.607Z,28.80
2022-09-06T14:20:59.557Z,23.58
2022-09-06T14:23:26.946Z,26.80
2022-09-06T14:26:01.911Z,23.80
2022-09-06T14:28:32.212Z,24.70
2022-09-06T14:30:59.228Z,20.33
2022-09-06T14:33:26.296Z,22.40
2022-09-06T14:35:53.276Z,27.70
2022-09-06T14:38:20.262Z,26.60
2022-09-06T14:40:47.656Z,27.35
2022-09-06T14:43:16.106Z,27.42
2022-09-06T14:45:43.083Z,15.40
2022-09-06T14:48:10.290Z,7.75
2022-09-06T14:50:37.554Z,17.90
2022-09-06T14:53:15.027Z,23.45
2022-09-06T14:55:51.198Z,22.35
2022-09-06T14:58:18.226Z,22.23
2022-09-06T15:00:46.693Z,24.50
2022-09-06T15:03:13.680Z,21.95
2022-09-06T15:05:40.670Z,23.67
2022-09-06T15:08:07.676Z,43.75
2022-09-06T15:10:34.668Z,26.37
2022-09-06T15:13:01.741Z,27.60
2022-09-06T15:15:28.837Z,32.08
2022-09-06T15:17:55.895Z,28.92
2022-09-06T15:20:22.813Z,33.20
2022-09-06T15:22:56.344Z,32.25
2022-09-06T15:25:54.458Z,30.25
2022-09-06T15:28:21.586Z,38.53
2022-09-06T15:30:49.184Z,35.28
2022-09-06T15:33:16.399Z,28.45
2022-09-06T15:35:44.189Z,29.63
2022-09-06T15:38:12.221Z,35.67
2022-09-06T15:40:39.313Z,34.65
2022-09-06T15:43:07.621Z,24.27
2022-09-06T15:45:47.438Z,27.77
2022-09-06T15:48:17.870Z,32.95
2022-09-06T15:50:51.726Z,29.15
2022-09-06T15:53:19.832Z,31.08
2022-09-06T15:55:56.283Z,34.65
2022-09-06T15:58:25.203Z,30.23
2022-09-06T16:01:11.757Z,26.37
2022-09-06T16:03:42.057Z,37.55
2022-09-06T16:06:27.897Z,32.75
2022-09-06T16:09:04.893Z,22.73
2022-09-06T16:11:36.949Z,41.40
2022-09-06T16:14:06.254Z,30.95
2022-09-06T16:16:35.016Z,30.73
2022-09-06T16:19:02.601Z,33.00
2022-09-06T16:21:32.354Z,28.67
2022-09-06T16:24:08.239Z,27.23
2022-09-06T16:26:38.291Z,28.90
2022-09-06T16:29:07.260Z,36.08
2022-09-06T16:31:39.335Z,31.17
2022-09-06T16:34:07.946Z,33.90
2022-09-06T16:36:35.131Z,27.37
2022-09-06T16:39:02.509Z,27.90
2022-09-06T16:41:40.898Z,24.95
2022-09-06T16:44:09.825Z,23.87
2022-09-06T16:46:37.080Z,33.45
2022-09-06T16:49:04.700Z,27.02
2022-09-06T16:51:32.084Z,25.25
2022-09-06T16:54:00.227Z,26.15
2022-09-06T16:56:33.294Z,18.42
2022-09-06T16:59:03.157Z,15.93
2022-09-06T17:01:31.425Z,18.23
2022-09-06T17:04:02.296Z,21.30
2022-09-06T17:06:30.640Z,27.42
2022-09-06T17:08:58.720Z,23.92
2022-09-06T17:11:27.037Z,24.15
2022-09-06T17:13:55.502Z,24.20
2022-09-06T17:16:41.431Z,22.10
2022-09-06T17:19:09.563Z,25.60
2022-09-06T17:21:37.480Z,27.17
2022-09-06T17:24:05.661Z,27.67
2022-09-06T17:26:35.118Z,25.40
2022-09-06T17:29:02.124Z,29.52
2022-09-06T17:31:29.458Z,29.12
2022-09-06T17:33:56.501Z,27.27
2022-09-06T17:36:30.569Z,28.62
2022-09-06T17:39:01.945Z,32.35
2022-09-06T17:41:33.608Z,28.62
2022-09-06T17:44:00.601Z,25.73
2022-09-06T17:46:29.087Z,30.33
2022-09-06T17:48:56.808Z,31.30
2022-09-06T17:51:24.723Z,30.33
2022-09-06T17:53:53.056Z,31.33
2022-09-06T17:56:20.967Z,30.73
2022-09-06T17:58:56.411Z,30.77
2022-09-06T18:01:25.106Z,27.92
2022-09-06T18:03:52.948Z,32.70
2022-09-06T18:06:24.803Z,29.17
2022-09-06T18:08:55.679Z,33.75
2022-09-06T18:11:28.275Z,32.78
2022-09-06T18:14:03.012Z,31.92
2022-09-06T18:16:31.354Z,25.08
2022-09-06T18:19:00.667Z,31.30
2022-09-06T18:21:30.991Z,25.37
2022-09-06T18:23:58.735Z,26.35
2022-09-06T18:26:26.451Z,24.30
2022-09-06T18:28:53.803Z,27.30
2022-09-06T18:31:23.235Z,28.50
2022-09-06T18:33:51.034Z,24.45
2022-09-06T18:36:19.631Z,28.45
2022-09-06T18:38:46.990Z,28.35
2022-09-06T18:41:34.465Z,24.77
2022-09-06T18:44:05.705Z,30.30
2022-09-06T18:46:34.722Z,33.40
2022-09-06T18:49:02.181Z,27.02
2022-09-06T18:51:29.365Z,26.95
2022-09-06T18:53:57.857Z,35.78
2022-09-06T18:56:25.344Z,34.30
2022-09-06T18:59:00.139Z,38.90
2022-09-06T19:01:29.405Z,33.35
2022-09-06T19:04:00.126Z,25.50
2022-09-06T19:06:29.381Z,28.58
2022-09-06T19:09:05.494Z,36.13
2022-09-06T19:11:33.174Z,33.13
2022-09-06T19:14:00.441Z,36.42
2022-09-06T19:16:29.084Z,32.08
2022-09-06T19:18:57.033Z,31.00
2022-09-06T19:21:25.570Z,31.62
2022-09-06T19:24:00.692Z,34.60
2022-09-06T19:26:31.335Z,29.52
2022-09-06T19:29:00.670Z,35.53
2022-09-06T19:31:30.299Z,31.65
2022-09-06T19:33:58.925Z,33.53
2022-09-06T19:36:27.842Z,33.25
2022-09-06T19:39:05.030Z,52.50
2022-09-06T19:41:35.834Z,39.05
2022-09-06T19:44:14.855Z,34.17
2022-09-06T19:46:45.948Z,30.40
2022-09-06T19:49:17.579Z,35.05
2022-09-06T19:51:46.686Z,42.67
2022-09-06T19:54:17.129Z,39.38
2022-09-06T19:56:45.205Z,37.10
2022-09-06T19:59:13.724Z,27.23
2022-09-06T20:01:42.610Z,36.05
2022-09-06T20:04:11.270Z,33.40
2022-09-06T20:06:39.028Z,35.85
2022-09-06T20:09:09.078Z,32.72
2022-09-06T20:11:37.928Z,36.38
2022-09-06T20:14:06.905Z,34.17
2022-09-06T20:16:37.082Z,35.53
2022-09-06T20:19:07.905Z,27.42
2022-09-06T20:21:35.293Z,35.03
2022-09-06T20:24:02.540Z,39.75
2022-09-06T20:26:30.572Z,38.53
2022-09-06T20:28:59.533Z,45.55
2022-09-06T20:31:29.791Z,40.17
2022-09-06T20:33:59.917Z,44.25
2022-09-06T20:36:27.698Z,40.25
2022-09-06T20:38:54.675Z,33.80
2022-09-06T20:41:23.815Z,35.25
2022-09-06T20:43:55.624Z,37.10
2022-09-06T20:46:24.941Z,36.47
2022-09-06T20:48:52.638Z,38.88
2022-09-06T20:51:21.880Z,36.80
2022-09-06T20:53:53.397Z,36.50
2022-09-06T20:56:23.481Z,43.63
2022-09-06T20:58:57.696Z,37.30
2022-09-06T21:01:32.091Z,39.70
2022-09-06T21:04:00.757Z,39.58
2022-09-06T21:06:30.440Z,36.45
2022-09-06T21:09:00.512Z,34.88
2022-09-06T21:11:28.004Z,32.03
2022-09-06T21:14:01.252Z,30.23
2022-09-06T21:16:29.797Z,29.27
2022-09-06T21:19:12.864Z,19.17
2022-09-06T21:21:40.770Z,17.25
2022-09-06T21:24:12.962Z,11.57
2022-09-06T21:26:44.886Z,7.45
